Station: Portable Rfsnsw53  

  Atmospheric Gas Attenuation - ITU Rec 676-11   ----------------- dB/100km -----------------
Date Time Temp RH % AH g/m3 Dew Point Wind Direction Speed kph Gust kph Barometer mB Rainfall Since 9am 24GHz 47GHz 76GHz 122GHz 134GHz 241GHz
08/05 12:20 15.1 66 8.51 8.8 24 30 1013.1 0 19.3 25.4 38.8 101.8 95.6 328.8
08/05 12:10 15.1 67 8.64 9.1 24 30 1013.1 0 19.6 25.6 39.3 103.1 97.3 334.7
08/05 11:50 14 70 8.44 8.7 20 22 1013.1 0 19.2 25.6 39.1 102.5 96.0 330.2
08/05 11:40 13.9 71 8.51 8.7 22 26 1013.1 0 19.4 25.7 39.4 103.3 97.1 333.9
08/05 11:20 13.7 72 8.53 8.7 20 26 1013.1 0 19.4 25.8 39.6 103.8 97.6 335.6
08/05 11:10 13.4 73 8.49 8.7 20 24 1013.1 0 19.4 25.8 39.5 103.8 97.4 335.1
08/05 11:00 13.1 73 8.33 8.5 20 28 1013.1 0 19.0 25.7 39.1 102.5 95.7 328.9
08/05 10:50 12.9 74 8.34 8.5 20 22 1013.1 0 19.1 25.7 39.2 102.8 96.1 330.2
08/05 10:40 13 73 8.28 8.4 24 28 1013.1 0 18.9 25.6 38.9 102.1 95.2 327.1
08/05 10:30 13.2 72 8.27 8.4 19 20 1013.1 0 18.9 25.5 38.8 101.7 94.8 325.8
08/05 10:20 13 74 8.39 8.5 19 24 1013.1 0 19.2 25.8 39.3 103.2 96.6 332.1
08/05 10:00 12.6 74 8.19 8.2 19 22 1013.1 0 18.8 25.6 38.7 101.6 94.5 324.5
08/05 09:50 12.5 75 8.25 8.2 20 24 1013.1 0 18.9 25.7 39.0 102.4 95.4 327.7
08/05 09:40 12.2 75 8.09 8 20 24 1013.1 0 18.6 25.5 38.5 101.0 93.6 321.6
08/05 09:30 11.8 77 8.11 8 19 20 1013.1 0 18.6 25.7 38.8 101.8 94.4 324.1
08/05 09:20 11.6 79 8.21 8.1 17 20 1013.1 0 18.9 25.9 39.3 103.1 96.0 329.6
08/05 09:10 11.2 80 8.11 7.9 15 19 1013.1 0 18.7 25.8 39.1 102.6 95.1 326.6
08/05 09:00 10.5 82 7.95 7.6 15 17 1013.1 0 18.4 25.8 38.8 101.7 93.8 322.0
08/05 08:40 9.6 87 7.97 7.5 15 19 1013.1 0 18.4 26.1 39.3 103.1 95.2 326.7
08/05 08:20 9.3 89 8 7.6 19 22 1013.1 0 18.5 26.2 39.6 103.9 96.0 329.4
08/05 08:10 9.5 87 7.92 7.5 19 22 1013.1 0 18.3 26.0 39.2 102.7 94.6 324.7
08/05 07:50 9.5 84 7.65 7 13 15 1013.1 0 17.8 25.6 38.0 99.7 91.0 311.8
08/05 07:30 8.9 84 7.36 6.4 7 9 1013.1 0 17.2 25.3 37.1 97.3 87.7 300.5
08/05 07:20 8.7 85 7.35 6.3 6 7 1013.1 0 17.1 25.3 37.2 97.5 87.8 300.8
08/05 07:10 8.6 85 7.31 6.2 9 11 1013.1 0 17.1 25.3 37.1 97.1 87.4 299.3
08/05 07:00 8.6 85 7.31 6.2 7 11 1013.1 0 17.1 25.3 37.1 97.1 87.4 299.3
08/05 06:50 8.4 86 7.3 6.2 7 9 1013.1 0 17.0 25.3 37.1 97.3 87.5 299.6
08/05 06:40 8.5 85 7.26 6.1 7 9 1013.1 0 17.0 25.2 36.9 96.7 86.8 297.3
08/05 06:30 8.3 85 7.17 6 7 7 1013.1 0 16.8 25.1 36.6 96.0 85.8 293.8
08/05 06:20 8 86 7.11 5.8 7 11 1013.1 0 16.7 25.1 36.5 95.7 85.4 292.1
08/05 06:10 7.7 86 6.98 5.6 11 15 1013.1 0 16.4 25.0 36.1 94.6 83.9 287.0
08/05 06:00 7.5 86 6.89 5.3 13 13 1013.1 0 16.2 24.9 35.9 93.9 82.9 283.5
08/05 05:50 7.3 86 6.8 5.2 9 11 1013.1 0 16.0 24.8 35.6 93.1 81.9 280.0
08/05 05:40 7.1 86 6.71 4.9 11 11 1013.1 0 15.8 24.7 35.3 92.4 80.9 276.4
08/05 05:30 6.9 86 6.62 4.7 11 13 1013.1 0 15.6 24.6 35.0 91.6 79.9 272.9
08/05 05:10 6.7 86 6.54 4.5 11 13 1013.1 0 15.5 24.5 34.8 91.0 79.1 269.8
08/05 05:00 6.6 86 6.5 4.5 11 13 1013.1 0 15.4 24.5 34.7 90.7 78.6 268.3
08/05 04:50 6.2 88 6.48 4.3 9 11 1013.1 0 15.4 24.6 34.8 90.9 78.8 268.7
08/05 04:40 5.8 89 6.38 4.2 9 9 1013.1 0 15.2 24.5 34.5 90.3 77.8 265.3
08/05 04:30 5.9 87 6.28 3.9 9 11 1013.1 0 15.0 24.3 34.1 89.1 76.4 260.3
08/05 04:10 6.5 85 6.38 4.2 13 13 1013.1 0 15.1 24.3 34.2 89.5 77.1 263.0
08/05 04:00 6.8 84 6.43 4.3 13 13 1013.1 0 15.2 24.3 34.3 89.7 77.5 264.3
08/05 03:50 6.9 83 6.39 4.3 13 13 1013.1 0 15.1 24.2 34.1 89.2 76.9 262.1
08/05 03:40 6.8 84 6.43 4.3 11 13 1013.1 0 15.2 24.3 34.3 89.7 77.5 264.3
08/05 03:30 6.7 85 6.46 4.4 9 11 1013.1 0 15.3 24.4 34.5 90.1 78.0 266.0
08/05 03:20 6.7 85 6.46 4.3 11 11 1013.1 0 15.3 24.4 34.5 90.1 78.0 266.0
08/05 03:00 7.4 81 6.44 4.4 9 11 1013.1 0 15.2 24.2 34.1 89.1 77.0 262.8
08/05 02:50 7.5 80 6.41 4.3 11 11 1013.1 0 15.2 24.1 33.9 88.7 76.5 261.0
08/05 02:30 7.5 79 6.33 4.1 11 11 1013.1 0 15.0 24.0 33.6 87.8 75.5 257.3
08/05 02:20 7.5 78 6.25 4 9 9 1013.1 0 14.8 23.9 33.3 87.0 74.4 253.6
08/05 02:10 7.5 78 6.25 4 9 11 1013.1 0 14.8 23.9 33.3 87.0 74.4 253.6
08/05 02:00 7.5 77 6.17 3.8 11 11 1013.1 0 14.7 23.7 33.0 86.1 73.4 250.0
08/05 01:50 7.5 78 6.25 3.9 11 11 1013.1 0 14.8 23.9 33.3 87.0 74.4 253.6
08/05 01:40 7.5 77 6.17 3.8 9 11 1013.1 0 14.7 23.7 33.0 86.1 73.4 250.0
08/05 01:30 7.4 77 6.13 3.6 9 9 1013.1 0 14.6 23.7 32.8 85.8 72.9 248.4
08/05 01:20 7.4 76 6.05 3.5 11 13 1013.1 0 14.4 23.6 32.5 85.0 71.9 244.8
08/05 01:10 7.5 77 6.17 3.7 11 11 1013.1 0 14.7 23.7 33.0 86.1 73.4 250.0
08/05 01:00 7.5 77 6.17 3.8 9 11 1013.1 0 14.7 23.7 33.0 86.1 73.4 250.0
08/05 00:50 7.4 76 6.05 3.5 9 11 1013.1 0 14.4 23.6 32.5 85.0 71.9 244.8
08/05 00:40 7.3 77 6.09 3.6 11 13 1013.1 0 14.5 23.6 32.7 85.5 72.5 246.9
08/05 00:20 7.2 78 6.13 3.6 11 11 1013.1 0 14.6 23.7 32.9 86.0 73.1 249.1
08/05 00:00 6.8 79 6.05 3.5 9 9 1013.1 0 14.4 23.7 32.8 85.6 72.5 246.6
07/05 23:50 6.5 81 6.08 3.5 7 9 1013.1 0 14.5 23.8 33.0 86.3 73.1 249.0
07/05 23:40 6.4 80 5.96 3.2 7 7 1013.1 0 14.2 23.7 32.6 85.1 71.6 243.7
07/05 23:30 6.2 82 6.03 3.4 6 7 1013.1 0 14.4 23.8 32.9 86.1 72.7 247.6
07/05 23:10 6.6 77 5.82 2.9 4 4 1013.1 0 13.9 23.4 31.9 83.4 69.6 236.7
07/05 22:50 7.5 72 5.77 2.8 9 11 1013.1 0 13.8 23.1 31.4 81.9 68.2 231.7
07/05 22:40 7.5 72 5.77 2.8 9 11 1013.1 0 13.8 23.1 31.4 81.9 68.2 231.7
07/05 22:30 7.5 72 5.77 2.8 9 9 1013.1 0 13.8 23.1 31.4 81.9 68.2 231.7
07/05 22:20 7.7 70 5.68 2.7 9 11 1013.1 0 13.6 22.9 31.0 80.8 66.8 227.1
07/05 22:10 7.8 69 5.63 2.5 9 11 1013.1 0 13.5 22.8 30.7 80.2 66.1 224.6
07/05 22:00 7.8 68 5.55 2.3 11 11 1013.1 0 13.3 22.7 30.4 79.3 65.1 221.0
07/05 21:50 7.8 68 5.55 2.2 11 11 1013.1 0 13.3 22.7 30.4 79.3 65.1 221.0
07/05 21:40 7.8 67 5.47 2.1 9 11 1013.1 0 13.1 22.5 30.1 78.5 64.1 217.4
07/05 21:30 7.9 67 5.51 2.1 9 11 1013.1 0 13.2 22.6 30.2 78.8 64.5 218.9
07/05 21:20 7.9 66 5.42 2 11 13 1013.1 0 13.0 22.4 29.9 77.9 63.4 214.9
07/05 21:10 7.8 66 5.39 1.8 9 11 1013.1 0 13.0 22.4 29.8 77.7 63.1 213.9
07/05 21:00 7.7 66 5.35 1.8 7 9 1013.1 0 12.9 22.4 29.7 77.4 62.7 212.4
07/05 20:50 7.7 67 5.44 2 7 9 1013.1 0 13.1 22.5 30.0 78.3 63.8 216.4
07/05 20:40 7.9 65 5.34 1.8 9 11 1013.1 0 12.9 22.3 29.6 77.1 62.4 211.4
07/05 20:30 8 64 5.29 1.6 9 9 1013.1 0 12.7 22.2 29.4 76.5 61.7 208.9
07/05 20:20 7.9 64 5.26 1.6 9 11 1013.1 0 12.7 22.2 29.3 76.3 61.4 207.9
07/05 20:10 8 63 5.21 1.5 7 9 1013.1 0 12.6 22.1 29.1 75.7 60.7 205.4
07/05 20:00 7.9 62 5.09 1.2 9 11 1013.1 0 12.3 21.9 28.6 74.6 59.2 200.4
07/05 19:40 8 63 5.21 1.4 7 7 1013.1 0 12.6 22.1 29.1 75.7 60.7 205.4
07/05 19:30 8.2 62 5.19 1.3 7 9 1013.1 0 12.5 22.0 28.9 75.3 60.3 204.0
07/05 19:20 8.4 60 5.09 1.2 7 11 1013.1 0 12.3 21.8 28.5 74.1 58.9 199.2
07/05 19:10 8.6 59 5.07 1.1 9 11 1013.1 0 12.3 21.7 28.3 73.7 58.5 197.8
07/05 18:50 8.4 59 5.01 1 9 9 1013.1 0 12.1 21.7 28.2 73.3 57.9 195.7
07/05 18:40 8.4 59 5.01 0.9 7 9 1013.1 0 12.1 21.7 28.2 73.3 57.9 195.7
07/05 18:20 8.7 59 5.1 1.3 4 4 1013.1 0 12.3 21.8 28.4 73.9 58.8 198.9
07/05 18:10 9.2 56 5 1 6 6 1013.1 0 12.1 21.5 27.8 72.5 57.2 193.4
07/05 18:00 9.5 56 5.1 1.2 7 9 1013.1 0 12.3 21.6 28.1 73.2 58.2 196.9
07/05 17:50 9.8 54 5.01 1 9 11 1013.1 0 12.1 21.4 27.7 72.0 56.9 192.3
07/05 17:40 10.1 52 4.92 0.7 11 13 1013.1 0 11.9 21.2 27.3 70.9 55.6 187.8
07/05 17:30 10.4 51 4.92 0.8 13 17 1013.1 0 11.9 21.1 27.2 70.6 55.4 187.1
07/05 17:20 10.7 50 4.91 0.8 17 20 1013.1 0 11.8 21.0 27.0 70.3 55.0 186.0
07/05 17:10 10.9 49 4.87 0.6 19 20 1013.1 0 11.8 20.9 26.8 69.7 54.4 183.9
07/05 17:00 11.1 48 4.84 0.6 17 19 1013.1 0 11.7 20.8 26.6 69.2 53.9 182.2
07/05 16:50 11.4 46 4.72 0.4 19 22 1013.1 0 11.4 20.6 26.1 67.9 52.3 176.6

Last Refresh: 08-May-2026 12:08:01

Bureau of Meteorology